createdAt,value
2023-05-14T00:00:03.406Z,33.68
2023-05-14T00:01:03.405Z,33.67
2023-05-14T00:02:03.444Z,33.69
2023-05-14T00:03:03.463Z,33.71
2023-05-14T00:04:03.459Z,33.71
2023-05-14T00:05:03.409Z,33.70
2023-05-14T00:06:03.408Z,33.68
2023-05-14T00:07:03.415Z,33.70
2023-05-14T00:08:03.421Z,33.68
2023-05-14T00:09:03.400Z,33.70
2023-05-14T00:10:03.425Z,33.70
2023-05-14T00:11:03.400Z,33.70
2023-05-14T00:12:03.420Z,33.70
2023-05-14T00:13:03.439Z,33.67
2023-05-14T00:14:03.416Z,33.72
2023-05-14T00:15:03.443Z,33.70
2023-05-14T00:16:03.497Z,33.71
2023-05-14T00:17:03.441Z,33.73
2023-05-14T00:18:03.484Z,33.73
2023-05-14T00:19:03.456Z,33.70
2023-05-14T00:20:03.459Z,33.71
2023-05-14T00:21:03.509Z,33.72
2023-05-14T00:22:03.554Z,33.72
2023-05-14T00:23:03.609Z,33.73
2023-05-14T00:24:03.665Z,33.72
2023-05-14T00:25:03.746Z,33.74
2023-05-14T00:26:03.774Z,33.72
2023-05-14T00:27:03.809Z,33.73
2023-05-14T00:28:03.958Z,33.72
2023-05-14T00:29:03.919Z,33.73
2023-05-14T00:30:03.978Z,33.73
2023-05-14T00:31:04.077Z,33.74
2023-05-14T00:32:04.081Z,33.73
2023-05-14T00:33:04.205Z,33.73
2023-05-14T00:34:04.180Z,33.75
2023-05-14T00:35:04.276Z,33.75
2023-05-14T00:36:04.346Z,33.73
2023-05-14T00:37:04.329Z,33.74
2023-05-14T00:38:04.385Z,33.75
2023-05-14T00:39:04.443Z,33.75
2023-05-14T00:40:04.474Z,33.75
2023-05-14T00:41:04.537Z,33.75
2023-05-14T00:42:04.566Z,33.74
2023-05-14T00:43:04.614Z,33.76
2023-05-14T00:44:04.669Z,33.74
2023-05-14T00:45:04.787Z,33.73
2023-05-14T00:46:04.718Z,33.75
2023-05-14T00:47:04.840Z,33.76
2023-05-14T00:48:04.782Z,33.77
2023-05-14T00:49:04.722Z,33.75
2023-05-14T00:50:04.760Z,33.76
2023-05-14T00:51:04.720Z,33.78
2023-05-14T00:52:04.716Z,33.76
2023-05-14T00:53:04.715Z,33.77
2023-05-14T00:54:04.718Z,33.76
2023-05-14T00:55:04.738Z,33.77
2023-05-14T00:56:04.729Z,33.76
2023-05-14T00:57:04.720Z,33.76
2023-05-14T00:58:04.738Z,33.77
2023-05-14T00:59:04.798Z,33.77
2023-05-14T01:00:04.859Z,33.78
2023-05-14T01:01:04.937Z,33.77
2023-05-14T01:02:04.955Z,33.79
2023-05-14T01:03:05.076Z,33.78
2023-05-14T01:04:05.089Z,33.78
2023-05-14T01:05:05.211Z,33.79
2023-05-14T01:06:05.173Z,33.80
2023-05-14T01:07:05.227Z,33.80
2023-05-14T01:08:05.295Z,33.78
2023-05-14T01:09:05.341Z,33.79
2023-05-14T01:10:05.395Z,33.80
2023-05-14T01:11:05.444Z,33.80
2023-05-14T01:12:05.509Z,33.79
2023-05-14T01:13:05.572Z,33.81
2023-05-14T01:14:05.624Z,33.78
2023-05-14T01:15:05.689Z,33.80
2023-05-14T01:16:05.789Z,33.81
2023-05-14T01:17:05.807Z,33.81
2023-05-14T01:18:05.918Z,33.79
2023-05-14T01:19:05.945Z,33.80
2023-05-14T01:20:05.975Z,33.82
2023-05-14T01:21:06.041Z,33.82
2023-05-14T01:22:06.090Z,33.79
2023-05-14T01:23:06.131Z,33.81
2023-05-14T01:24:06.128Z,33.83
2023-05-14T01:25:06.140Z,33.83
2023-05-14T01:26:06.129Z,33.83
2023-05-14T01:27:06.133Z,33.83
2023-05-14T01:28:06.126Z,33.83
2023-05-14T01:29:06.113Z,33.83
2023-05-14T01:30:06.148Z,33.82
2023-05-14T01:31:06.109Z,33.82
2023-05-14T01:32:06.189Z,33.84
2023-05-14T01:33:06.170Z,33.82
2023-05-14T01:34:06.114Z,33.82
2023-05-14T01:35:06.174Z,33.82
2023-05-14T01:36:06.194Z,33.84
2023-05-14T01:37:06.263Z,33.84
2023-05-14T01:38:06.316Z,33.83
2023-05-14T01:39:06.367Z,33.84
2023-05-14T01:40:06.422Z,33.85
2023-05-14T01:41:06.466Z,33.86
2023-05-14T01:42:06.529Z,33.84
2023-05-14T01:43:06.655Z,33.85
2023-05-14T01:44:06.603Z,33.84
2023-05-14T01:45:06.691Z,33.87
2023-05-14T01:46:06.746Z,33.87
2023-05-14T01:47:06.777Z,33.85
2023-05-14T01:48:06.848Z,33.87
2023-05-14T01:49:06.874Z,33.89
2023-05-14T01:50:06.933Z,33.84
2023-05-14T01:51:06.978Z,33.87
2023-05-14T01:52:07.037Z,33.85
2023-05-14T01:53:07.110Z,33.87
2023-05-14T01:54:07.129Z,33.86
2023-05-14T01:55:07.212Z,33.87
2023-05-14T01:56:07.241Z,33.87
2023-05-14T01:57:07.288Z,33.85
2023-05-14T01:58:07.338Z,33.84
2023-05-14T01:59:07.382Z,33.86
2023-05-14T02:00:07.490Z,33.89
2023-05-14T02:01:07.500Z,33.87
2023-05-14T02:02:07.528Z,33.87
2023-05-14T02:03:07.667Z,33.88
2023-05-14T02:04:07.696Z,33.87
2023-05-14T02:05:07.690Z,33.90
2023-05-14T02:06:07.734Z,33.89
2023-05-14T02:07:07.801Z,33.87
2023-05-14T02:08:07.846Z,33.90
2023-05-14T02:09:07.935Z,33.90
2023-05-14T02:10:07.986Z,33.89
2023-05-14T02:11:08.000Z,33.90
2023-05-14T02:12:08.061Z,33.90
2023-05-14T02:13:08.057Z,33.89
2023-05-14T02:14:08.047Z,33.90
2023-05-14T02:15:08.059Z,33.91
2023-05-14T02:16:08.167Z,33.90
2023-05-14T02:17:08.070Z,33.89
2023-05-14T02:18:08.053Z,33.90
2023-05-14T02:19:08.194Z,33.90
2023-05-14T02:20:08.031Z,33.89
2023-05-14T02:21:08.033Z,33.90
2023-05-14T02:22:08.028Z,33.90
2023-05-14T02:23:08.048Z,33.89
2023-05-14T02:24:08.086Z,33.89
2023-05-14T02:25:08.150Z,33.88
2023-05-14T02:26:08.201Z,33.89
2023-05-14T02:27:08.245Z,33.89
2023-05-14T02:28:08.284Z,33.92
2023-05-14T02:29:08.330Z,33.89
2023-05-14T02:30:08.386Z,33.90
2023-05-14T02:31:08.463Z,33.91
2023-05-14T02:32:08.546Z,33.90
2023-05-14T02:33:08.593Z,33.89
2023-05-14T02:34:08.595Z,33.91
2023-05-14T02:35:08.625Z,33.90
2023-05-14T02:36:08.682Z,33.92
2023-05-14T02:37:08.715Z,33.89
2023-05-14T02:38:08.764Z,33.90
2023-05-14T02:39:08.827Z,33.90
2023-05-14T02:40:08.866Z,33.88
2023-05-14T02:41:08.921Z,33.90
2023-05-14T02:42:08.959Z,33.92
2023-05-14T02:43:09.006Z,33.90
2023-05-14T02:44:09.060Z,33.90
2023-05-14T02:45:09.118Z,33.91
2023-05-14T02:46:09.180Z,33.89
2023-05-14T02:47:09.366Z,33.85
2023-05-14T02:48:09.350Z,33.56
2023-05-14T02:49:09.267Z,33.46
2023-05-14T02:50:09.249Z,32.27
2023-05-14T02:51:09.252Z,31.77
2023-05-14T02:52:09.230Z,31.61
2023-05-14T02:53:09.247Z,31.45
2023-05-14T02:54:09.226Z,31.30
2023-05-14T02:55:09.208Z,31.22
2023-05-14T02:56:09.204Z,31.09
2023-05-14T02:57:09.218Z,30.95
2023-05-14T02:58:09.193Z,30.72
2023-05-14T02:59:09.220Z,30.62
2023-05-14T03:00:09.208Z,30.41
2023-05-14T03:01:09.281Z,30.29
2023-05-14T03:02:09.300Z,30.25
2023-05-14T03:03:09.259Z,30.13
2023-05-14T03:04:09.238Z,29.99
2023-05-14T03:05:09.228Z,29.93
2023-05-14T03:06:09.247Z,29.81
2023-05-14T03:07:09.228Z,29.76
2023-05-14T03:08:09.296Z,29.65
2023-05-14T03:09:09.241Z,29.59
2023-05-14T03:10:09.240Z,29.55
2023-05-14T03:11:09.261Z,29.43
2023-05-14T03:12:09.253Z,29.38
2023-05-14T03:13:09.264Z,29.32
2023-05-14T03:14:09.263Z,29.33
2023-05-14T03:15:09.272Z,29.16
2023-05-14T03:16:09.284Z,29.13
2023-05-14T03:17:09.335Z,29.09
2023-05-14T03:18:09.332Z,29.04
2023-05-14T03:19:09.398Z,29.00
2023-05-14T03:20:09.303Z,29.02
2023-05-14T03:21:09.325Z,29.04
2023-05-14T03:22:09.340Z,29.03
2023-05-14T03:23:09.439Z,29.02
2023-05-14T03:24:09.465Z,29.00
2023-05-14T03:25:09.424Z,29.03
2023-05-14T03:26:09.454Z,28.97
2023-05-14T03:27:09.482Z,28.97
2023-05-14T03:28:09.496Z,28.91
2023-05-14T03:29:09.530Z,28.92
2023-05-14T03:30:09.600Z,28.88
2023-05-14T03:31:09.655Z,28.91
2023-05-14T03:32:09.633Z,28.95
2023-05-14T03:33:09.671Z,28.88
2023-05-14T03:34:09.714Z,28.84
2023-05-14T03:35:09.709Z,28.86
2023-05-14T03:36:09.723Z,28.92
2023-05-14T03:37:09.706Z,28.96
2023-05-14T03:38:09.716Z,28.97
2023-05-14T03:39:09.751Z,28.93
2023-05-14T03:40:09.704Z,28.87
2023-05-14T03:41:09.731Z,28.86
2023-05-14T03:42:09.710Z,28.89
2023-05-14T03:43:09.724Z,28.89
2023-05-14T03:44:09.730Z,28.87
2023-05-14T03:45:09.735Z,28.88
2023-05-14T03:46:09.763Z,28.91
2023-05-14T03:47:09.758Z,28.89
2023-05-14T03:48:09.852Z,28.86
2023-05-14T03:49:09.818Z,28.83
2023-05-14T03:50:09.775Z,28.86
2023-05-14T03:51:09.792Z,28.91
2023-05-14T03:52:09.779Z,28.84
2023-05-14T03:53:09.775Z,28.88
2023-05-14T03:54:09.785Z,28.87
2023-05-14T03:55:09.793Z,28.91
2023-05-14T03:56:09.863Z,28.91
2023-05-14T03:57:09.902Z,28.92
2023-05-14T03:58:09.959Z,28.90
2023-05-14T03:59:09.996Z,28.90
2023-05-14T04:00:10.066Z,28.97
2023-05-14T04:01:10.113Z,29.01
2023-05-14T04:02:10.209Z,28.91
2023-05-14T04:03:10.322Z,28.96
2023-05-14T04:04:10.412Z,28.96
2023-05-14T04:05:10.411Z,28.95
2023-05-14T04:06:10.420Z,29.00
2023-05-14T04:07:10.454Z,28.97
2023-05-14T04:08:10.547Z,28.99
2023-05-14T04:09:10.593Z,29.00
2023-05-14T04:10:10.646Z,28.98
2023-05-14T04:11:10.708Z,29.03
2023-05-14T04:12:10.805Z,29.08
2023-05-14T04:13:10.826Z,29.01
2023-05-14T04:14:10.845Z,29.02
2023-05-14T04:15:10.845Z,28.98
2023-05-14T04:16:10.897Z,28.98
2023-05-14T04:17:10.871Z,29.01
2023-05-14T04:18:10.932Z,29.03
2023-05-14T04:19:10.943Z,29.02
2023-05-14T04:20:10.894Z,29.09
2023-05-14T04:21:10.873Z,29.08
2023-05-14T04:22:10.884Z,29.16
2023-05-14T04:23:10.904Z,29.15
2023-05-14T04:24:10.890Z,29.18
2023-05-14T04:25:10.954Z,29.17
2023-05-14T04:26:11.046Z,29.14
2023-05-14T04:27:11.084Z,29.18
2023-05-14T04:28:11.180Z,29.15
2023-05-14T04:29:11.239Z,29.17
2023-05-14T04:30:11.317Z,29.17
2023-05-14T04:31:11.408Z,29.16
2023-05-14T04:32:11.441Z,29.19
2023-05-14T04:33:11.516Z,29.19
2023-05-14T04:34:11.588Z,29.23
2023-05-14T04:35:11.626Z,29.24
2023-05-14T04:36:11.700Z,29.24
2023-05-14T04:37:11.725Z,29.25
2023-05-14T04:38:11.710Z,29.27
2023-05-14T04:39:11.730Z,29.28
2023-05-14T04:40:11.744Z,29.29
2023-05-14T04:41:11.746Z,29.28
2023-05-14T04:42:11.744Z,29.29
2023-05-14T04:43:11.741Z,29.25
2023-05-14T04:44:11.769Z,29.27
2023-05-14T04:45:11.755Z,29.28
2023-05-14T04:46:11.841Z,29.27
2023-05-14T04:47:11.790Z,29.25
2023-05-14T04:48:11.817Z,29.28
2023-05-14T04:49:11.796Z,29.35
2023-05-14T04:50:11.826Z,29.34
2023-05-14T04:51:11.858Z,29.36
2023-05-14T04:52:11.905Z,29.41
2023-05-14T04:53:11.982Z,29.42
2023-05-14T04:54:12.075Z,29.47
2023-05-14T04:55:12.122Z,29.48
2023-05-14T04:56:12.202Z,29.46
2023-05-14T04:57:12.197Z,29.52
2023-05-14T04:58:12.200Z,29.49
2023-05-14T04:59:12.221Z,29.51
2023-05-14T05:00:12.225Z,29.54
2023-05-14T05:01:12.287Z,29.56
2023-05-14T05:02:12.262Z,29.56
2023-05-14T05:03:12.327Z,29.56
2023-05-14T05:04:12.323Z,29.55
2023-05-14T05:05:12.279Z,29.57
2023-05-14T05:06:12.337Z,29.60
2023-05-14T05:07:12.307Z,29.60
2023-05-14T05:08:12.330Z,29.62
2023-05-14T05:09:12.364Z,29.67
2023-05-14T05:10:12.352Z,29.67
2023-05-14T05:11:12.374Z,29.74
2023-05-14T05:12:12.415Z,29.79
2023-05-14T05:13:12.408Z,29.80
2023-05-14T05:14:12.412Z,29.81
2023-05-14T05:15:12.428Z,29.79
2023-05-14T05:16:12.497Z,29.80
2023-05-14T05:17:12.446Z,29.81
2023-05-14T05:18:12.475Z,29.80
2023-05-14T05:19:12.671Z,29.78
2023-05-14T05:20:12.471Z,29.79
2023-05-14T05:21:12.503Z,29.82
2023-05-14T05:22:12.481Z,29.81
2023-05-14T05:23:12.489Z,29.83
2023-05-14T05:24:12.501Z,29.84
2023-05-14T05:25:12.521Z,29.84
2023-05-14T05:26:12.568Z,29.84
2023-05-14T05:27:12.632Z,29.80
2023-05-14T05:28:12.687Z,29.80
2023-05-14T05:29:12.750Z,29.79
2023-05-14T05:30:12.838Z,29.80
2023-05-14T05:31:12.936Z,29.78
2023-05-14T05:32:12.938Z,29.78
2023-05-14T05:33:13.015Z,29.74
2023-05-14T05:34:13.073Z,29.76
2023-05-14T05:35:13.142Z,29.80
2023-05-14T05:36:13.210Z,29.76
2023-05-14T05:37:13.271Z,29.77
2023-05-14T05:38:13.333Z,29.73
2023-05-14T05:39:13.409Z,29.80
2023-05-14T05:40:13.462Z,29.82
2023-05-14T05:41:13.520Z,29.82
2023-05-14T05:42:13.625Z,29.88
2023-05-14T05:43:13.675Z,29.87
2023-05-14T05:44:13.721Z,29.91
2023-05-14T05:45:13.780Z,29.91
2023-05-14T05:46:13.901Z,29.94
2023-05-14T05:47:13.940Z,29.94
2023-05-14T05:48:13.974Z,29.91
2023-05-14T05:49:14.043Z,29.94
2023-05-14T05:50:14.134Z,30.01
2023-05-14T05:51:14.173Z,29.97
2023-05-14T05:52:14.258Z,30.02
2023-05-14T05:53:14.318Z,30.00
2023-05-14T05:54:14.378Z,30.04
2023-05-14T05:55:14.450Z,30.05
2023-05-14T05:56:14.512Z,30.03
2023-05-14T05:57:14.577Z,30.07
2023-05-14T05:58:14.654Z,30.10
2023-05-14T05:59:14.779Z,30.09
2023-05-14T06:00:14.773Z,30.13
2023-05-14T06:01:14.847Z,30.19
2023-05-14T06:02:14.987Z,30.19
2023-05-14T06:03:15.028Z,30.21
2023-05-14T06:04:15.053Z,30.24
2023-05-14T06:05:15.184Z,30.22
2023-05-14T06:06:15.199Z,30.24
2023-05-14T06:07:15.257Z,30.18
2023-05-14T06:08:15.356Z,30.19
2023-05-14T06:09:15.472Z,30.22
2023-05-14T06:10:15.505Z,30.25
2023-05-14T06:11:15.556Z,30.27
2023-05-14T06:12:15.633Z,30.29
2023-05-14T06:13:15.702Z,30.32
2023-05-14T06:14:15.717Z,30.32
2023-05-14T06:15:15.707Z,30.31
2023-05-14T06:16:15.751Z,30.31
2023-05-14T06:17:15.728Z,30.31
2023-05-14T06:18:15.743Z,30.35
2023-05-14T06:19:15.860Z,30.38
2023-05-14T06:20:15.753Z,30.36
2023-05-14T06:21:15.759Z,30.32
2023-05-14T06:22:15.785Z,30.32
2023-05-14T06:23:15.779Z,30.41
2023-05-14T06:24:15.779Z,30.33
2023-05-14T06:25:15.781Z,30.35
2023-05-14T06:26:15.802Z,30.40
2023-05-14T06:27:15.791Z,30.39
2023-05-14T06:28:15.800Z,30.42
2023-05-14T06:29:15.801Z,30.42
2023-05-14T06:30:15.832Z,30.41
2023-05-14T06:31:15.887Z,30.42
2023-05-14T06:32:16.063Z,30.44
2023-05-14T06:33:16.025Z,30.47
2023-05-14T06:34:16.086Z,30.49
2023-05-14T06:35:16.144Z,30.46
2023-05-14T06:36:16.203Z,30.45
2023-05-14T06:37:16.269Z,30.47
2023-05-14T06:38:16.319Z,30.43
2023-05-14T06:39:16.380Z,30.46
2023-05-14T06:40:16.437Z,30.49
2023-05-14T06:41:16.500Z,30.47
2023-05-14T06:42:16.561Z,30.52
2023-05-14T06:43:16.615Z,30.50
2023-05-14T06:44:16.665Z,30.53
2023-05-14T06:45:16.712Z,30.54
2023-05-14T06:46:16.776Z,30.52
2023-05-14T06:47:16.825Z,30.46
2023-05-14T06:48:16.998Z,30.46
2023-05-14T06:49:17.111Z,30.47
2023-05-14T06:50:16.989Z,30.39
2023-05-14T06:51:17.048Z,30.40
2023-05-14T06:52:17.077Z,30.39
2023-05-14T06:53:17.199Z,30.40
2023-05-14T06:54:17.196Z,30.40
2023-05-14T06:55:17.236Z,30.39
2023-05-14T06:56:17.294Z,30.37
2023-05-14T06:57:17.349Z,30.37
2023-05-14T06:58:17.413Z,30.42
2023-05-14T06:59:17.497Z,30.45
2023-05-14T07:00:17.548Z,30.42
2023-05-14T07:01:17.694Z,30.44
2023-05-14T07:02:17.685Z,30.47
2023-05-14T07:03:17.755Z,30.47
2023-05-14T07:04:17.836Z,30.50
2023-05-14T07:05:17.863Z,30.50
2023-05-14T07:06:17.944Z,30.50
2023-05-14T07:07:17.979Z,30.50
2023-05-14T07:08:18.040Z,30.46
2023-05-14T07:09:18.123Z,30.47
2023-05-14T07:10:18.191Z,30.47
2023-05-14T07:11:18.251Z,30.49
2023-05-14T07:12:18.323Z,30.47
2023-05-14T07:13:18.378Z,30.50
2023-05-14T07:14:18.453Z,30.49
2023-05-14T07:15:18.542Z,30.49
2023-05-14T07:16:18.598Z,30.54
2023-05-14T07:17:18.745Z,30.51
2023-05-14T07:18:18.771Z,30.52
2023-05-14T07:19:18.891Z,30.53
2023-05-14T07:20:18.882Z,30.54
2023-05-14T07:21:18.956Z,30.53
2023-05-14T07:22:19.042Z,30.52
2023-05-14T07:23:19.971Z,30.55
2023-05-14T07:24:19.117Z,30.56
2023-05-14T07:25:19.114Z,30.56
2023-05-14T07:26:19.108Z,30.60
2023-05-14T07:27:19.112Z,30.58
2023-05-14T07:28:19.102Z,30.55
2023-05-14T07:29:19.136Z,30.56
2023-05-14T07:30:19.108Z,30.54
2023-05-14T07:31:19.180Z,30.51
2023-05-14T07:32:19.119Z,30.48
2023-05-14T07:33:19.151Z,30.41
2023-05-14T07:34:19.241Z,30.40
2023-05-14T07:35:19.298Z,30.40
2023-05-14T07:36:19.377Z,30.37
2023-05-14T07:37:19.811Z,30.35
2023-05-14T07:38:19.509Z,30.33
2023-05-14T07:39:19.518Z,30.36
2023-05-14T07:40:19.526Z,30.39
2023-05-14T07:41:19.516Z,30.37
2023-05-14T07:42:28.287Z,30.39
2023-05-14T07:43:20.563Z,30.40
2023-05-14T07:44:19.531Z,30.38
2023-05-14T07:45:19.531Z,30.35
2023-05-14T07:46:19.549Z,30.32
2023-05-14T07:47:19.576Z,30.30
2023-05-14T07:48:19.593Z,30.30
2023-05-14T07:49:19.549Z,30.26
2023-05-14T07:50:19.555Z,30.18
2023-05-14T07:51:19.551Z,30.13
2023-05-14T07:52:19.586Z,30.11
2023-05-14T07:53:19.562Z,30.09
2023-05-14T07:54:19.562Z,30.07
2023-05-14T07:55:19.566Z,30.03
2023-05-14T07:56:19.612Z,30.02
2023-05-14T07:57:19.683Z,30.03
2023-05-14T07:58:19.669Z,30.00
2023-05-14T07:59:19.690Z,30.00
2023-05-14T08:00:19.687Z,30.02
2023-05-14T08:01:19.696Z,30.02
2023-05-14T08:02:19.740Z,30.02
2023-05-14T08:03:19.904Z,30.01
2023-05-14T08:04:19.802Z,29.98
2023-05-14T08:05:19.727Z,29.95
2023-05-14T08:06:19.741Z,29.93
2023-05-14T08:07:19.823Z,29.93
2023-05-14T08:08:19.884Z,29.98
2023-05-14T08:09:19.962Z,29.96
2023-05-14T08:10:20.140Z,29.93
2023-05-14T08:11:20.076Z,29.87
2023-05-14T08:12:20.057Z,29.87
2023-05-14T08:13:20.053Z,29.81
2023-05-14T08:14:20.060Z,29.85
2023-05-14T08:15:20.087Z,29.85
2023-05-14T08:16:20.156Z,29.83
2023-05-14T08:17:20.095Z,29.81
2023-05-14T08:18:20.086Z,29.79
2023-05-14T08:19:20.231Z,29.77
2023-05-14T08:20:20.102Z,29.75
2023-05-14T08:21:20.112Z,29.73
2023-05-14T08:22:20.123Z,29.72
2023-05-14T08:23:20.121Z,29.73
2023-05-14T08:24:20.180Z,29.75
2023-05-14T08:25:20.233Z,29.78
2023-05-14T08:26:20.289Z,29.68
2023-05-14T08:27:20.387Z,29.67
2023-05-14T08:28:20.424Z,29.68
2023-05-14T08:29:20.477Z,29.69
2023-05-14T08:30:20.545Z,29.64
2023-05-14T08:31:20.658Z,29.65
2023-05-14T08:32:23.707Z,29.65
2023-05-14T08:33:20.669Z,29.61
2023-05-14T08:34:20.670Z,29.63
2023-05-14T08:35:20.686Z,29.64
2023-05-14T08:36:20.686Z,29.63
2023-05-14T08:37:20.698Z,29.62
2023-05-14T08:38:20.703Z,29.61
2023-05-14T08:39:20.722Z,29.57
2023-05-14T08:40:20.741Z,29.59
2023-05-14T08:41:20.716Z,29.56
2023-05-14T08:42:20.724Z,29.53
2023-05-14T08:43:20.714Z,29.55
2023-05-14T08:44:20.706Z,29.51
2023-05-14T08:45:20.721Z,29.51
2023-05-14T08:46:20.722Z,29.56
2023-05-14T08:47:20.755Z,29.55
2023-05-14T08:48:20.853Z,29.58
2023-05-14T08:49:20.840Z,29.85
2023-05-14T08:50:23.046Z,29.92
2023-05-14T08:51:20.742Z,29.99
2023-05-14T08:52:20.765Z,29.96
2023-05-14T08:53:20.770Z,29.98
2023-05-14T08:54:20.767Z,30.02
2023-05-14T08:55:20.777Z,30.00
2023-05-14T08:56:20.774Z,30.01
2023-05-14T08:57:20.779Z,30.03
2023-05-14T08:58:20.803Z,30.00
2023-05-14T08:59:20.799Z,29.98
2023-05-14T09:00:20.854Z,29.95
2023-05-14T09:01:20.818Z,29.98
2023-05-14T09:02:20.923Z,29.93
2023-05-14T09:03:20.830Z,29.94
2023-05-14T09:04:20.883Z,29.92
2023-05-14T09:05:20.809Z,29.92
2023-05-14T09:06:20.825Z,29.93
2023-05-14T09:07:20.816Z,29.92
2023-05-14T09:08:20.810Z,29.94
2023-05-14T09:09:20.818Z,29.94
2023-05-14T09:10:20.813Z,29.95
2023-05-14T09:11:20.808Z,29.98
2023-05-14T09:12:20.822Z,29.97
2023-05-14T09:13:20.828Z,30.01
2023-05-14T09:14:20.813Z,30.00
2023-05-14T09:15:20.835Z,30.01
2023-05-14T09:16:20.842Z,29.99
2023-05-14T09:17:20.854Z,29.98
2023-05-14T09:18:20.805Z,29.99
2023-05-14T09:19:20.860Z,30.03
2023-05-14T09:20:20.974Z,30.02
2023-05-14T09:21:20.798Z,30.03
2023-05-14T09:22:20.816Z,30.05
2023-05-14T09:23:20.797Z,30.08
2023-05-14T09:24:20.807Z,30.09
2023-05-14T09:25:20.799Z,30.08
2023-05-14T09:26:20.806Z,30.07
2023-05-14T09:27:20.844Z,30.09
2023-05-14T09:28:20.808Z,30.09
2023-05-14T09:29:20.807Z,30.13
2023-05-14T09:30:20.844Z,30.13
2023-05-14T09:31:20.817Z,30.15
2023-05-14T09:32:20.812Z,30.16
2023-05-14T09:33:20.815Z,30.18
2023-05-14T09:34:20.827Z,30.22
2023-05-14T09:35:20.830Z,30.25
2023-05-14T09:36:20.793Z,30.27
2023-05-14T09:37:20.803Z,30.26
2023-05-14T09:38:20.801Z,30.29
2023-05-14T09:39:20.802Z,30.28
2023-05-14T09:40:20.932Z,30.31
2023-05-14T09:41:20.796Z,30.35
2023-05-14T09:42:20.796Z,30.37
2023-05-14T09:43:20.799Z,30.39
2023-05-14T09:44:20.808Z,30.39
2023-05-14T09:45:20.800Z,30.41
2023-05-14T09:46:20.795Z,30.43
2023-05-14T09:47:20.903Z,30.45
2023-05-14T09:48:20.828Z,30.45
2023-05-14T09:49:20.804Z,30.45
2023-05-14T09:50:20.818Z,30.44
2023-05-14T09:51:20.795Z,30.46
2023-05-14T09:52:20.794Z,30.48
2023-05-14T09:53:20.795Z,30.48
2023-05-14T09:54:20.877Z,30.49
2023-05-14T09:55:20.947Z,30.50
2023-05-14T09:56:21.034Z,30.50
2023-05-14T09:57:21.103Z,30.52
2023-05-14T09:58:21.158Z,30.53
2023-05-14T09:59:21.261Z,30.54
2023-05-14T10:00:21.404Z,30.56
2023-05-14T10:01:21.380Z,30.54
2023-05-14T10:02:21.497Z,30.56
2023-05-14T10:03:21.509Z,30.58
2023-05-14T10:04:21.644Z,30.60
2023-05-14T10:05:21.626Z,30.63
2023-05-14T10:06:21.694Z,30.62
2023-05-14T10:07:21.773Z,30.63
2023-05-14T10:08:21.832Z,30.64
2023-05-14T10:09:21.895Z,30.67
2023-05-14T10:10:22.042Z,30.66
2023-05-14T10:11:22.045Z,30.68
2023-05-14T10:12:22.102Z,30.70
2023-05-14T10:13:22.163Z,30.71
2023-05-14T10:14:22.230Z,30.72
2023-05-14T10:15:22.293Z,30.73
2023-05-14T10:16:22.375Z,30.73
2023-05-14T10:17:22.414Z,30.76
2023-05-14T10:18:22.485Z,30.75
2023-05-14T10:19:22.825Z,30.78
2023-05-14T10:20:22.777Z,30.78
2023-05-14T10:21:22.686Z,30.80
2023-05-14T10:22:22.771Z,30.79
2023-05-14T10:23:22.798Z,30.80
2023-05-14T10:24:22.793Z,30.83
2023-05-14T10:25:22.785Z,30.81
2023-05-14T10:26:24.015Z,30.82
2023-05-14T10:27:22.792Z,30.81
2023-05-14T10:28:22.798Z,30.83
2023-05-14T10:29:22.778Z,30.84
2023-05-14T10:30:22.952Z,30.85
2023-05-14T10:31:22.807Z,30.86
2023-05-14T10:32:22.773Z,30.88
2023-05-14T10:33:22.767Z,30.86
2023-05-14T10:34:22.755Z,30.87
2023-05-14T10:35:22.769Z,30.90
2023-05-14T10:36:22.744Z,30.86
2023-05-14T10:37:22.759Z,30.86
2023-05-14T10:38:22.759Z,30.88
2023-05-14T10:39:22.730Z,30.90
2023-05-14T10:40:22.981Z,30.87
2023-05-14T10:41:22.733Z,30.89
2023-05-14T10:42:22.801Z,30.91
2023-05-14T10:43:22.858Z,30.90
2023-05-14T10:44:22.933Z,30.92
2023-05-14T10:45:22.985Z,30.91
2023-05-14T10:46:23.087Z,30.92
2023-05-14T10:47:23.121Z,30.93
2023-05-14T10:48:23.213Z,30.94
2023-05-14T10:49:36.089Z,30.94
2023-05-14T10:50:24.543Z,30.95
2023-05-14T10:51:23.285Z,30.93
2023-05-14T10:52:23.225Z,30.93
2023-05-14T10:53:23.221Z,30.94
2023-05-14T10:54:23.212Z,30.93
2023-05-14T10:55:23.216Z,30.95
2023-05-14T10:56:23.211Z,30.92
2023-05-14T10:57:23.227Z,30.91
2023-05-14T10:58:23.206Z,30.95
2023-05-14T10:59:23.268Z,30.91
2023-05-14T11:00:23.463Z,30.93
2023-05-14T11:01:23.416Z,30.91
2023-05-14T11:02:23.517Z,30.91
2023-05-14T11:03:23.518Z,30.92
2023-05-14T11:04:23.560Z,30.93
2023-05-14T11:05:23.615Z,30.91
2023-05-14T11:06:23.676Z,30.93
2023-05-14T11:07:23.782Z,30.91
2023-05-14T11:08:26.490Z,30.92
2023-05-14T11:09:23.776Z,30.94
2023-05-14T11:10:24.193Z,30.94
2023-05-14T11:11:23.769Z,30.96
2023-05-14T11:12:23.766Z,30.94
2023-05-14T11:13:23.772Z,30.94
2023-05-14T11:14:23.767Z,30.93
2023-05-14T11:15:23.775Z,30.95
2023-05-14T11:16:24.205Z,30.94
2023-05-14T11:17:23.874Z,30.95
2023-05-14T11:18:23.786Z,30.94
2023-05-14T11:19:23.784Z,30.96
2023-05-14T11:20:24.053Z,30.95
2023-05-14T11:22:18.253Z,30.98
2023-05-14T11:23:18.274Z,30.96
2023-05-14T11:24:18.309Z,30.98
2023-05-14T11:25:18.377Z,30.96
2023-05-14T11:26:20.845Z,30.95
2023-05-14T11:27:18.376Z,30.96
2023-05-14T11:28:18.374Z,30.97
2023-05-14T11:29:18.382Z,30.99
2023-05-14T11:30:18.456Z,30.99
2023-05-14T11:31:18.308Z,30.98
2023-05-14T11:32:18.325Z,30.99
2023-05-14T11:33:18.290Z,30.97
2023-05-14T11:34:18.228Z,30.97
2023-05-14T11:35:18.192Z,30.99
2023-05-14T11:36:18.180Z,30.97
2023-05-14T11:37:18.152Z,30.98
2023-05-14T11:38:18.163Z,30.98
2023-05-14T11:39:18.093Z,30.96
2023-05-14T11:40:18.197Z,30.97
2023-05-14T11:41:18.060Z,31.00
2023-05-14T11:42:18.021Z,30.98
2023-05-14T11:43:18.000Z,30.99
2023-05-14T11:44:17.978Z,31.00
2023-05-14T11:45:17.950Z,31.00
2023-05-14T11:46:18.040Z,30.99
2023-05-14T11:47:17.892Z,31.00
2023-05-14T11:48:17.892Z,30.99
2023-05-14T11:49:17.853Z,30.97
2023-05-14T11:50:17.829Z,31.00
2023-05-14T11:51:17.874Z,31.00
2023-05-14T11:52:17.808Z,31.01
2023-05-14T11:53:17.781Z,31.00
2023-05-14T11:54:17.760Z,31.00
2023-05-14T11:55:17.738Z,31.02
2023-05-14T11:56:17.737Z,31.03
2023-05-14T11:57:17.704Z,31.04
2023-05-14T11:58:17.677Z,31.01
2023-05-14T11:59:17.651Z,31.04
2023-05-14T12:00:17.617Z,31.04
2023-05-14T12:01:17.592Z,31.05
2023-05-14T12:02:17.665Z,31.08
2023-05-14T12:03:17.766Z,31.04
2023-05-14T12:04:17.729Z,31.06
2023-05-14T12:05:17.715Z,31.05
2023-05-14T12:06:17.751Z,31.08
2023-05-14T12:07:17.796Z,31.07
2023-05-14T12:08:17.769Z,31.07
2023-05-14T12:09:17.750Z,31.09
2023-05-14T12:10:17.732Z,31.10
2023-05-14T12:11:17.685Z,31.09
2023-05-14T12:12:17.669Z,31.10
2023-05-14T12:13:17.642Z,31.11
2023-05-14T12:14:17.607Z,31.09
2023-05-14T12:15:17.577Z,31.14
2023-05-14T12:16:17.617Z,31.12
2023-05-14T12:17:17.623Z,31.14
2023-05-14T12:18:24.590Z,31.15
2023-05-14T12:19:18.666Z,31.17
2023-05-14T12:20:17.578Z,31.18
2023-05-14T12:21:17.542Z,31.19
2023-05-14T12:22:17.509Z,31.19
2023-05-14T12:23:17.497Z,31.22
2023-05-14T12:24:17.452Z,31.21
2023-05-14T12:25:17.502Z,31.22
2023-05-14T12:26:17.371Z,31.23
2023-05-14T12:27:17.358Z,31.21
2023-05-14T12:28:17.325Z,31.23
2023-05-14T12:29:17.309Z,31.22
2023-05-14T12:30:21.846Z,31.24
2023-05-14T12:31:18.293Z,31.26
2023-05-14T12:32:17.203Z,31.27
2023-05-14T12:33:17.199Z,31.27
2023-05-14T12:34:17.169Z,31.26
2023-05-14T12:35:17.131Z,31.27
2023-05-14T12:36:21.906Z,31.28
2023-05-14T12:37:18.057Z,31.28
2023-05-14T12:38:17.040Z,31.29
2023-05-14T12:39:17.003Z,31.28
2023-05-14T12:40:16.992Z,31.30
2023-05-14T12:41:16.942Z,31.32
2023-05-14T12:42:16.915Z,31.30
2023-05-14T12:43:16.888Z,31.31
2023-05-14T12:44:16.845Z,31.33
2023-05-14T12:45:16.823Z,31.30
2023-05-14T12:46:16.794Z,31.31
2023-05-14T12:47:16.867Z,31.31
2023-05-14T12:48:16.841Z,31.32
2023-05-14T12:49:16.870Z,31.30
2023-05-14T12:50:16.890Z,31.33
2023-05-14T12:51:16.924Z,31.34
2023-05-14T12:52:25.977Z,31.34
2023-05-14T12:53:17.945Z,31.35